sensor_id;sensor_type;location;lat;lon;timestamp;P1;durP1;ratioP1;P2;durP2;ratioP2
2129;SDS011;1071;52.544;13.374;2024-03-08T00:00:43;24.90;;;19.13;;
2129;SDS011;1071;52.544;13.374;2024-03-08T00:03:10;22.90;;;19.45;;
2129;SDS011;1071;52.544;13.374;2024-03-08T00:06:01;24.88;;;19.30;;
2129;SDS011;1071;52.544;13.374;2024-03-08T00:08:29;23.10;;;19.25;;
2129;SDS011;1071;52.544;13.374;2024-03-08T00:11:00;24.85;;;19.70;;
2129;SDS011;1071;52.544;13.374;2024-03-08T00:13:36;24.48;;;20.98;;
2129;SDS011;1071;52.544;13.374;2024-03-08T00:16:04;23.40;;;18.50;;
2129;SDS011;1071;52.544;13.374;2024-03-08T00:18:35;26.05;;;18.90;;
2129;SDS011;1071;52.544;13.374;2024-03-08T00:21:04;24.77;;;19.10;;
2129;SDS011;1071;52.544;13.374;2024-03-08T00:23:33;23.88;;;19.80;;
2129;SDS011;1071;52.544;13.374;2024-03-08T00:26:06;26.35;;;18.02;;
2129;SDS011;1071;52.544;13.374;2024-03-08T00:28:41;24.50;;;18.02;;
2129;SDS011;1071;52.544;13.374;2024-03-08T00:31:13;21.25;;;17.45;;
2129;SDS011;1071;52.544;13.374;2024-03-08T00:33:48;25.00;;;19.33;;
2129;SDS011;1071;52.544;13.374;2024-03-08T00:36:19;27.38;;;19.52;;
2129;SDS011;1071;52.544;13.374;2024-03-08T00:38:47;26.23;;;18.75;;
2129;SDS011;1071;52.544;13.374;2024-03-08T00:41:14;23.42;;;18.25;;
2129;SDS011;1071;52.544;13.374;2024-03-08T00:43:43;24.15;;;19.40;;
2129;SDS011;1071;52.544;13.374;2024-03-08T00:46:20;36.72;;;25.55;;
2129;SDS011;1071;52.544;13.374;2024-03-08T00:48:47;32.92;;;29.27;;
2129;SDS011;1071;52.544;13.374;2024-03-08T00:51:15;100.07;;;89.30;;
2129;SDS011;1071;52.544;13.374;2024-03-08T00:53:48;49.85;;;44.78;;
2129;SDS011;1071;52.544;13.374;2024-03-08T00:56:21;47.40;;;42.35;;
2129;SDS011;1071;52.544;13.374;2024-03-08T00:58:53;34.90;;;31.55;;
2129;SDS011;1071;52.544;13.374;2024-03-08T01:01:22;30.98;;;27.63;;
2129;SDS011;1071;52.544;13.374;2024-03-08T01:03:59;33.35;;;29.75;;
2129;SDS011;1071;52.544;13.374;2024-03-08T01:06:29;32.75;;;28.75;;
2129;SDS011;1071;52.544;13.374;2024-03-08T01:08:56;26.52;;;22.50;;
2129;SDS011;1071;52.544;13.374;2024-03-08T01:11:26;25.08;;;21.55;;
2129;SDS011;1071;52.544;13.374;2024-03-08T01:14:00;25.48;;;21.00;;
2129;SDS011;1071;52.544;13.374;2024-03-08T01:16:34;25.33;;;20.48;;
2129;SDS011;1071;52.544;13.374;2024-03-08T01:19:03;24.73;;;18.95;;
2129;SDS011;1071;52.544;13.374;2024-03-08T01:21:35;23.27;;;18.73;;
2129;SDS011;1071;52.544;13.374;2024-03-08T01:24:06;25.17;;;18.35;;
2129;SDS011;1071;52.544;13.374;2024-03-08T01:26:34;21.17;;;17.52;;
2129;SDS011;1071;52.544;13.374;2024-03-08T01:29:10;27.73;;;18.70;;
2129;SDS011;1071;52.544;13.374;2024-03-08T01:31:39;27.73;;;19.30;;
2129;SDS011;1071;52.544;13.374;2024-03-08T01:34:07;22.42;;;17.92;;
2129;SDS011;1071;52.544;13.374;2024-03-08T01:36:37;26.83;;;16.95;;
2129;SDS011;1071;52.544;13.374;2024-03-08T01:39:04;24.17;;;19.00;;
2129;SDS011;1071;52.544;13.374;2024-03-08T01:41:34;27.38;;;19.23;;
2129;SDS011;1071;52.544;13.374;2024-03-08T01:44:05;29.02;;;18.85;;
2129;SDS011;1071;52.544;13.374;2024-03-08T01:46:43;29.75;;;18.38;;
2129;SDS011;1071;52.544;13.374;2024-03-08T01:49:11;26.00;;;18.52;;
2129;SDS011;1071;52.544;13.374;2024-03-08T01:51:43;25.08;;;18.95;;
2129;SDS011;1071;52.544;13.374;2024-03-08T01:54:12;24.92;;;18.25;;
2129;SDS011;1071;52.544;13.374;2024-03-08T01:56:47;25.77;;;19.10;;
2129;SDS011;1071;52.544;13.374;2024-03-08T01:59:19;22.63;;;16.60;;
2129;SDS011;1071;52.544;13.374;2024-03-08T02:01:51;21.85;;;17.83;;
2129;SDS011;1071;52.544;13.374;2024-03-08T02:04:21;22.73;;;16.27;;
2129;SDS011;1071;52.544;13.374;2024-03-08T02:06:49;24.52;;;18.48;;
2129;SDS011;1071;52.544;13.374;2024-03-08T02:09:20;24.83;;;18.05;;
2129;SDS011;1071;52.544;13.374;2024-03-08T02:11:50;22.63;;;18.50;;
2129;SDS011;1071;52.544;13.374;2024-03-08T02:14:22;24.20;;;18.30;;
2129;SDS011;1071;52.544;13.374;2024-03-08T02:16:52;25.73;;;18.48;;
2129;SDS011;1071;52.544;13.374;2024-03-08T02:19:22;23.98;;;18.40;;
2129;SDS011;1071;52.544;13.374;2024-03-08T02:21:51;24.73;;;18.23;;
2129;SDS011;1071;52.544;13.374;2024-03-08T02:24:19;23.15;;;17.15;;
2129;SDS011;1071;52.544;13.374;2024-03-08T02:26:48;22.17;;;17.60;;
2129;SDS011;1071;52.544;13.374;2024-03-08T02:29:16;24.70;;;16.35;;
2129;SDS011;1071;52.544;13.374;2024-03-08T02:31:44;25.25;;;19.70;;
2129;SDS011;1071;52.544;13.374;2024-03-08T02:34:11;24.85;;;18.85;;
2129;SDS011;1071;52.544;13.374;2024-03-08T02:36:39;22.70;;;18.52;;
2129;SDS011;1071;52.544;13.374;2024-03-08T02:39:08;36.63;;;26.58;;
2129;SDS011;1071;52.544;13.374;2024-03-08T02:41:39;30.80;;;21.02;;
2129;SDS011;1071;52.544;13.374;2024-03-08T02:44:16;37.70;;;26.13;;
2129;SDS011;1071;52.544;13.374;2024-03-08T02:46:43;30.13;;;21.05;;
2129;SDS011;1071;52.544;13.374;2024-03-08T02:49:12;32.63;;;19.63;;
2129;SDS011;1071;52.544;13.374;2024-03-08T02:51:39;29.70;;;20.50;;
2129;SDS011;1071;52.544;13.374;2024-03-08T02:54:08;26.33;;;19.67;;
2129;SDS011;1071;52.544;13.374;2024-03-08T02:56:35;23.92;;;18.33;;
2129;SDS011;1071;52.544;13.374;2024-03-08T02:59:06;29.73;;;21.00;;
2129;SDS011;1071;52.544;13.374;2024-03-08T03:01:33;28.00;;;20.90;;
2129;SDS011;1071;52.544;13.374;2024-03-08T03:04:04;27.58;;;19.77;;
2129;SDS011;1071;52.544;13.374;2024-03-08T03:06:38;26.02;;;19.15;;
2129;SDS011;1071;52.544;13.374;2024-03-08T03:09:10;25.08;;;19.65;;
2129;SDS011;1071;52.544;13.374;2024-03-08T03:15:04;33.13;;;21.92;;
2129;SDS011;1071;52.544;13.374;2024-03-08T03:17:32;29.67;;;21.35;;
2129;SDS011;1071;52.544;13.374;2024-03-08T03:19:59;29.58;;;19.35;;
2129;SDS011;1071;52.544;13.374;2024-03-08T03:22:30;22.75;;;18.75;;
2129;SDS011;1071;52.544;13.374;2024-03-08T03:24:58;26.90;;;20.10;;
2129;SDS011;1071;52.544;13.374;2024-03-08T03:27:26;23.08;;;19.15;;
2129;SDS011;1071;52.544;13.374;2024-03-08T03:29:53;27.13;;;19.77;;
2129;SDS011;1071;52.544;13.374;2024-03-08T03:32:20;24.90;;;20.00;;
2129;SDS011;1071;52.544;13.374;2024-03-08T03:34:48;25.80;;;19.23;;
2129;SDS011;1071;52.544;13.374;2024-03-08T03:37:17;29.08;;;21.00;;
2129;SDS011;1071;52.544;13.374;2024-03-08T03:39:45;25.92;;;19.73;;
2129;SDS011;1071;52.544;13.374;2024-03-08T03:42:16;28.70;;;20.88;;
2129;SDS011;1071;52.544;13.374;2024-03-08T03:44:44;27.17;;;20.10;;
2129;SDS011;1071;52.544;13.374;2024-03-08T03:47:11;27.65;;;20.58;;
2129;SDS011;1071;52.544;13.374;2024-03-08T03:49:38;23.88;;;18.67;;
2129;SDS011;1071;52.544;13.374;2024-03-08T03:52:07;27.92;;;19.95;;
2129;SDS011;1071;52.544;13.374;2024-03-08T03:54:37;26.80;;;20.33;;
2129;SDS011;1071;52.544;13.374;2024-03-08T03:57:04;27.13;;;20.40;;
2129;SDS011;1071;52.544;13.374;2024-03-08T03:59:34;29.15;;;21.15;;
2129;SDS011;1071;52.544;13.374;2024-03-08T04:02:01;27.02;;;20.92;;
2129;SDS011;1071;52.544;13.374;2024-03-08T04:04:29;29.95;;;21.20;;
2129;SDS011;1071;52.544;13.374;2024-03-08T04:06:56;27.45;;;21.02;;
2129;SDS011;1071;52.544;13.374;2024-03-08T04:09:23;29.10;;;22.30;;
2129;SDS011;1071;52.544;13.374;2024-03-08T04:11:50;26.48;;;20.85;;
2129;SDS011;1071;52.544;13.374;2024-03-08T04:14:18;30.88;;;22.30;;
2129;SDS011;1071;52.544;13.374;2024-03-08T04:16:46;27.35;;;22.00;;
2129;SDS011;1071;52.544;13.374;2024-03-08T04:19:13;28.77;;;21.25;;
2129;SDS011;1071;52.544;13.374;2024-03-08T04:21:40;32.45;;;22.17;;
2129;SDS011;1071;52.544;13.374;2024-03-08T04:24:08;29.15;;;21.05;;
2129;SDS011;1071;52.544;13.374;2024-03-08T04:26:35;30.48;;;20.92;;
2129;SDS011;1071;52.544;13.374;2024-03-08T04:29:05;26.95;;;19.83;;
2129;SDS011;1071;52.544;13.374;2024-03-08T04:31:32;28.25;;;21.13;;
2129;SDS011;1071;52.544;13.374;2024-03-08T04:34:01;29.98;;;22.58;;
2129;SDS011;1071;52.544;13.374;2024-03-08T04:36:30;26.98;;;20.30;;
2129;SDS011;1071;52.544;13.374;2024-03-08T04:38:59;29.75;;;22.88;;
2129;SDS011;1071;52.544;13.374;2024-03-08T04:41:26;29.42;;;22.30;;
2129;SDS011;1071;52.544;13.374;2024-03-08T04:43:57;28.25;;;21.52;;
2129;SDS011;1071;52.544;13.374;2024-03-08T04:46:24;28.90;;;21.70;;
2129;SDS011;1071;52.544;13.374;2024-03-08T04:49:01;26.25;;;21.15;;
2129;SDS011;1071;52.544;13.374;2024-03-08T04:51:28;30.13;;;22.38;;
2129;SDS011;1071;52.544;13.374;2024-03-08T04:53:55;32.45;;;24.25;;
2129;SDS011;1071;52.544;13.374;2024-03-08T04:56:24;29.75;;;22.17;;
2129;SDS011;1071;52.544;13.374;2024-03-08T04:58:51;30.55;;;23.30;;
2129;SDS011;1071;52.544;13.374;2024-03-08T05:01:18;32.80;;;22.23;;
2129;SDS011;1071;52.544;13.374;2024-03-08T05:03:46;27.10;;;21.38;;
2129;SDS011;1071;52.544;13.374;2024-03-08T05:06:16;30.30;;;21.95;;
2129;SDS011;1071;52.544;13.374;2024-03-08T05:08:45;29.05;;;21.63;;
2129;SDS011;1071;52.544;13.374;2024-03-08T05:11:12;31.98;;;21.05;;
2129;SDS011;1071;52.544;13.374;2024-03-08T05:13:39;30.00;;;21.05;;
2129;SDS011;1071;52.544;13.374;2024-03-08T05:16:07;30.10;;;23.20;;
2129;SDS011;1071;52.544;13.374;2024-03-08T05:18:34;31.58;;;22.80;;
2129;SDS011;1071;52.544;13.374;2024-03-08T05:21:01;29.42;;;21.55;;
2129;SDS011;1071;52.544;13.374;2024-03-08T05:23:30;30.10;;;21.02;;
2129;SDS011;1071;52.544;13.374;2024-03-08T05:25:59;32.25;;;23.95;;
2129;SDS011;1071;52.544;13.374;2024-03-08T05:28:26;28.23;;;21.70;;
2129;SDS011;1071;52.544;13.374;2024-03-08T05:30:53;32.83;;;23.48;;
2129;SDS011;1071;52.544;13.374;2024-03-08T05:33:21;27.98;;;21.15;;
2129;SDS011;1071;52.544;13.374;2024-03-08T05:35:49;38.20;;;23.80;;
2129;SDS011;1071;52.544;13.374;2024-03-08T05:38:17;34.13;;;23.60;;
2129;SDS011;1071;52.544;13.374;2024-03-08T05:40:46;32.95;;;25.02;;
2129;SDS011;1071;52.544;13.374;2024-03-08T05:43:13;28.25;;;22.77;;
2129;SDS011;1071;52.544;13.374;2024-03-08T05:45:42;32.67;;;22.98;;
2129;SDS011;1071;52.544;13.374;2024-03-08T05:48:09;29.30;;;22.98;;
2129;SDS011;1071;52.544;13.374;2024-03-08T05:50:37;35.20;;;23.95;;
2129;SDS011;1071;52.544;13.374;2024-03-08T05:53:06;28.83;;;22.05;;
2129;SDS011;1071;52.544;13.374;2024-03-08T05:55:34;33.13;;;24.05;;
2129;SDS011;1071;52.544;13.374;2024-03-08T05:58:03;32.13;;;22.00;;
2129;SDS011;1071;52.544;13.374;2024-03-08T06:00:32;30.63;;;23.13;;
2129;SDS011;1071;52.544;13.374;2024-03-08T06:03:02;31.92;;;23.20;;
2129;SDS011;1071;52.544;13.374;2024-03-08T06:05:29;35.45;;;24.67;;
2129;SDS011;1071;52.544;13.374;2024-03-08T06:07:59;36.50;;;25.80;;
2129;SDS011;1071;52.544;13.374;2024-03-08T06:10:26;37.55;;;25.80;;
2129;SDS011;1071;52.544;13.374;2024-03-08T06:12:54;34.10;;;24.30;;
2129;SDS011;1071;52.544;13.374;2024-03-08T06:15:22;29.50;;;22.15;;
2129;SDS011;1071;52.544;13.374;2024-03-08T06:17:49;31.58;;;23.48;;
2129;SDS011;1071;52.544;13.374;2024-03-08T06:20:17;30.95;;;21.55;;
2129;SDS011;1071;52.544;13.374;2024-03-08T06:22:44;32.03;;;23.73;;
2129;SDS011;1071;52.544;13.374;2024-03-08T06:25:11;34.30;;;24.33;;
2129;SDS011;1071;52.544;13.374;2024-03-08T06:27:40;39.97;;;26.65;;
2129;SDS011;1071;52.544;13.374;2024-03-08T06:30:07;36.28;;;23.70;;
2129;SDS011;1071;52.544;13.374;2024-03-08T06:32:37;35.40;;;25.67;;
2129;SDS011;1071;52.544;13.374;2024-03-08T06:35:05;47.70;;;26.23;;
2129;SDS011;1071;52.544;13.374;2024-03-08T06:37:33;34.65;;;24.85;;
2129;SDS011;1071;52.544;13.374;2024-03-08T06:40:00;32.38;;;24.90;;
2129;SDS011;1071;52.544;13.374;2024-03-08T06:42:28;32.75;;;25.55;;
2129;SDS011;1071;52.544;13.374;2024-03-08T06:44:58;30.75;;;25.05;;
2129;SDS011;1071;52.544;13.374;2024-03-08T06:47:30;37.40;;;24.67;;
2129;SDS011;1071;52.544;13.374;2024-03-08T06:49:58;31.25;;;23.20;;
2129;SDS011;1071;52.544;13.374;2024-03-08T06:52:25;28.30;;;23.70;;
2129;SDS011;1071;52.544;13.374;2024-03-08T06:54:52;34.28;;;25.90;;
2129;SDS011;1071;52.544;13.374;2024-03-08T06:57:19;30.85;;;22.35;;
2129;SDS011;1071;52.544;13.374;2024-03-08T06:59:47;31.90;;;24.65;;
2129;SDS011;1071;52.544;13.374;2024-03-08T07:02:15;31.75;;;23.70;;
2129;SDS011;1071;52.544;13.374;2024-03-08T07:04:42;34.55;;;26.40;;
2129;SDS011;1071;52.544;13.374;2024-03-08T07:07:12;34.25;;;25.65;;
2129;SDS011;1071;52.544;13.374;2024-03-08T07:09:40;32.17;;;24.58;;
2129;SDS011;1071;52.544;13.374;2024-03-08T07:12:13;34.97;;;24.13;;
2129;SDS011;1071;52.544;13.374;2024-03-08T07:14:51;30.92;;;23.38;;
2129;SDS011;1071;52.544;13.374;2024-03-08T07:17:18;34.80;;;24.10;;
2129;SDS011;1071;52.544;13.374;2024-03-08T07:19:45;31.85;;;23.60;;
2129;SDS011;1071;52.544;13.374;2024-03-08T07:22:14;30.00;;;22.60;;
2129;SDS011;1071;52.544;13.374;2024-03-08T07:24:42;36.45;;;24.75;;
2129;SDS011;1071;52.544;13.374;2024-03-08T07:27:29;31.50;;;22.92;;
2129;SDS011;1071;52.544;13.374;2024-03-08T07:29:59;32.63;;;23.85;;
2129;SDS011;1071;52.544;13.374;2024-03-08T07:32:26;29.20;;;22.35;;
2129;SDS011;1071;52.544;13.374;2024-03-08T07:34:54;31.70;;;22.50;;
2129;SDS011;1071;52.544;13.374;2024-03-08T07:37:23;31.48;;;23.38;;
2129;SDS011;1071;52.544;13.374;2024-03-08T07:39:50;34.28;;;25.05;;
2129;SDS011;1071;52.544;13.374;2024-03-08T07:42:19;28.38;;;21.52;;
2129;SDS011;1071;52.544;13.374;2024-03-08T07:44:47;31.33;;;23.95;;
2129;SDS011;1071;52.544;13.374;2024-03-08T07:47:15;33.17;;;25.00;;
2129;SDS011;1071;52.544;13.374;2024-03-08T07:49:43;34.92;;;28.95;;
2129;SDS011;1071;52.544;13.374;2024-03-08T07:52:12;39.58;;;29.75;;
2129;SDS011;1071;52.544;13.374;2024-03-08T07:54:42;40.67;;;33.17;;
2129;SDS011;1071;52.544;13.374;2024-03-08T07:57:09;51.20;;;42.95;;
2129;SDS011;1071;52.544;13.374;2024-03-08T07:59:36;58.35;;;48.38;;
2129;SDS011;1071;52.544;13.374;2024-03-08T08:02:05;57.45;;;49.85;;
2129;SDS011;1071;52.544;13.374;2024-03-08T08:04:33;53.50;;;44.10;;
2129;SDS011;1071;52.544;13.374;2024-03-08T08:07:00;59.05;;;45.25;;
2129;SDS011;1071;52.544;13.374;2024-03-08T08:09:27;50.72;;;38.45;;
2129;SDS011;1071;52.544;13.374;2024-03-08T08:12:00;44.72;;;35.42;;
2129;SDS011;1071;52.544;13.374;2024-03-08T08:14:28;42.53;;;33.63;;
2129;SDS011;1071;52.544;13.374;2024-03-08T08:16:55;47.28;;;31.73;;
2129;SDS011;1071;52.544;13.374;2024-03-08T08:19:28;39.83;;;29.85;;
2129;SDS011;1071;52.544;13.374;2024-03-08T08:21:58;40.50;;;32.00;;
2129;SDS011;1071;52.544;13.374;2024-03-08T08:24:27;43.72;;;34.70;;
2129;SDS011;1071;52.544;13.374;2024-03-08T08:26:54;40.85;;;30.00;;
2129;SDS011;1071;52.544;13.374;2024-03-08T08:29:27;39.40;;;30.90;;
2129;SDS011;1071;52.544;13.374;2024-03-08T08:32:01;36.30;;;28.90;;
2129;SDS011;1071;52.544;13.374;2024-03-08T08:34:31;31.52;;;26.48;;
2129;SDS011;1071;52.544;13.374;2024-03-08T08:37:01;35.65;;;26.77;;
2129;SDS011;1071;52.544;13.374;2024-03-08T08:39:31;36.95;;;25.48;;
2129;SDS011;1071;52.544;13.374;2024-03-08T08:41:58;36.10;;;26.75;;
2129;SDS011;1071;52.544;13.374;2024-03-08T08:44:30;30.45;;;24.35;;
2129;SDS011;1071;52.544;13.374;2024-03-08T08:46:57;28.75;;;24.77;;
2129;SDS011;1071;52.544;13.374;2024-03-08T08:49:26;30.33;;;23.75;;
2129;SDS011;1071;52.544;13.374;2024-03-08T08:51:57;27.23;;;20.95;;
2129;SDS011;1071;52.544;13.374;2024-03-08T08:54:30;26.38;;;20.67;;
2129;SDS011;1071;52.544;13.374;2024-03-08T08:56:57;30.67;;;20.95;;
2129;SDS011;1071;52.544;13.374;2024-03-08T08:59:27;26.00;;;20.15;;
2129;SDS011;1071;52.544;13.374;2024-03-08T09:01:56;24.95;;;20.15;;
2129;SDS011;1071;52.544;13.374;2024-03-08T09:04:23;23.77;;;19.08;;
2129;SDS011;1071;52.544;13.374;2024-03-08T09:06:55;25.73;;;21.05;;
2129;SDS011;1071;52.544;13.374;2024-03-08T09:09:22;33.70;;;22.70;;
2129;SDS011;1071;52.544;13.374;2024-03-08T09:11:50;28.55;;;21.35;;
2129;SDS011;1071;52.544;13.374;2024-03-08T09:14:19;28.83;;;21.95;;
2129;SDS011;1071;52.544;13.374;2024-03-08T09:16:48;31.23;;;22.58;;
2129;SDS011;1071;52.544;13.374;2024-03-08T09:19:18;31.25;;;21.00;;
2129;SDS011;1071;52.544;13.374;2024-03-08T09:21:45;30.10;;;22.33;;
2129;SDS011;1071;52.544;13.374;2024-03-08T09:24:13;29.17;;;20.90;;
2129;SDS011;1071;52.544;13.374;2024-03-08T09:26:43;30.15;;;22.05;;
2129;SDS011;1071;52.544;13.374;2024-03-08T09:29:11;24.95;;;20.83;;
2129;SDS011;1071;52.544;13.374;2024-03-08T09:31:38;30.33;;;21.42;;
2129;SDS011;1071;52.544;13.374;2024-03-08T09:34:07;24.58;;;20.23;;
2129;SDS011;1071;52.544;13.374;2024-03-08T09:36:34;25.77;;;21.65;;
2129;SDS011;1071;52.544;13.374;2024-03-08T09:39:02;27.05;;;22.60;;
2129;SDS011;1071;52.544;13.374;2024-03-08T09:41:32;29.95;;;22.27;;
2129;SDS011;1071;52.544;13.374;2024-03-08T09:43:59;25.05;;;19.58;;
2129;SDS011;1071;52.544;13.374;2024-03-08T09:46:29;31.88;;;21.42;;
2129;SDS011;1071;52.544;13.374;2024-03-08T09:48:56;26.65;;;21.52;;
2129;SDS011;1071;52.544;13.374;2024-03-08T09:51:27;26.73;;;20.52;;
2129;SDS011;1071;52.544;13.374;2024-03-08T09:53:56;24.65;;;20.08;;
2129;SDS011;1071;52.544;13.374;2024-03-08T09:56:24;27.25;;;19.58;;
2129;SDS011;1071;52.544;13.374;2024-03-08T09:58:53;24.83;;;19.92;;
2129;SDS011;1071;52.544;13.374;2024-03-08T10:01:42;25.85;;;21.40;;
2129;SDS011;1071;52.544;13.374;2024-03-08T10:04:09;24.30;;;18.77;;
2129;SDS011;1071;52.544;13.374;2024-03-08T10:06:38;26.13;;;20.50;;
2129;SDS011;1071;52.544;13.374;2024-03-08T10:09:12;26.67;;;19.00;;
2129;SDS011;1071;52.544;13.374;2024-03-08T10:11:39;25.85;;;20.23;;
2129;SDS011;1071;52.544;13.374;2024-03-08T10:14:07;24.50;;;17.63;;
2129;SDS011;1071;52.544;13.374;2024-03-08T10:16:35;23.55;;;18.55;;
2129;SDS011;1071;52.544;13.374;2024-03-08T10:19:04;20.38;;;16.60;;
2129;SDS011;1071;52.544;13.374;2024-03-08T10:21:32;20.83;;;17.38;;
2129;SDS011;1071;52.544;13.374;2024-03-08T10:24:00;24.17;;;18.83;;
2129;SDS011;1071;52.544;13.374;2024-03-08T10:26:29;21.20;;;17.77;;
2129;SDS011;1071;52.544;13.374;2024-03-08T10:28:57;25.25;;;19.48;;
2129;SDS011;1071;52.544;13.374;2024-03-08T10:31:24;20.75;;;18.50;;
2129;SDS011;1071;52.544;13.374;2024-03-08T10:33:51;24.50;;;18.38;;
2129;SDS011;1071;52.544;13.374;2024-03-08T10:36:19;24.15;;;19.08;;
2129;SDS011;1071;52.544;13.374;2024-03-08T10:38:46;23.08;;;18.83;;
2129;SDS011;1071;52.544;13.374;2024-03-08T10:41:19;21.42;;;18.35;;
2129;SDS011;1071;52.544;13.374;2024-03-08T10:44:06;23.05;;;17.42;;
2129;SDS011;1071;52.544;13.374;2024-03-08T10:46:49;22.55;;;16.52;;
2129;SDS011;1071;52.544;13.374;2024-03-08T10:49:30;22.08;;;17.92;;
2129;SDS011;1071;52.544;13.374;2024-03-08T10:52:02;22.98;;;17.95;;
2129;SDS011;1071;52.544;13.374;2024-03-08T10:54:30;24.50;;;19.02;;
2129;SDS011;1071;52.544;13.374;2024-03-08T10:57:01;23.38;;;18.42;;
2129;SDS011;1071;52.544;13.374;2024-03-08T10:59:33;19.13;;;16.88;;
2129;SDS011;1071;52.544;13.374;2024-03-08T11:02:08;25.15;;;17.20;;
2129;SDS011;1071;52.544;13.374;2024-03-08T11:04:36;18.38;;;15.32;;
2129;SDS011;1071;52.544;13.374;2024-03-08T11:07:14;21.73;;;17.33;;
2129;SDS011;1071;52.544;13.374;2024-03-08T11:09:44;22.80;;;15.90;;
2129;SDS011;1071;52.544;13.374;2024-03-08T11:12:21;20.17;;;15.77;;
2129;SDS011;1071;52.544;13.374;2024-03-08T11:14:54;19.90;;;14.75;;
2129;SDS011;1071;52.544;13.374;2024-03-08T11:20:17;17.40;;;14.55;;
2129;SDS011;1071;52.544;13.374;2024-03-08T11:22:48;20.73;;;14.32;;
2129;SDS011;1071;52.544;13.374;2024-03-08T11:25:34;16.45;;;14.70;;
2129;SDS011;1071;52.544;13.374;2024-03-08T11:28:09;17.42;;;15.63;;
2129;SDS011;1071;52.544;13.374;2024-03-08T11:30:46;19.88;;;15.88;;
2129;SDS011;1071;52.544;13.374;2024-03-08T11:33:39;18.92;;;16.63;;
2129;SDS011;1071;52.544;13.374;2024-03-08T11:36:10;17.50;;;15.52;;
2129;SDS011;1071;52.544;13.374;2024-03-08T11:38:42;17.60;;;14.35;;
2129;SDS011;1071;52.544;13.374;2024-03-08T11:41:09;24.02;;;15.90;;
2129;SDS011;1071;52.544;13.374;2024-03-08T11:43:40;19.17;;;15.10;;
2129;SDS011;1071;52.544;13.374;2024-03-08T11:46:14;17.90;;;14.70;;
2129;SDS011;1071;52.544;13.374;2024-03-08T11:48:48;18.90;;;16.30;;
2129;SDS011;1071;52.544;13.374;2024-03-08T11:51:15;22.00;;;16.58;;
2129;SDS011;1071;52.544;13.374;2024-03-08T11:53:43;19.90;;;15.40;;
2129;SDS011;1071;52.544;13.374;2024-03-08T11:56:11;20.45;;;16.08;;
2129;SDS011;1071;52.544;13.374;2024-03-08T11:58:56;18.45;;;15.75;;
2129;SDS011;1071;52.544;13.374;2024-03-08T12:01:26;20.63;;;14.15;;
2129;SDS011;1071;52.544;13.374;2024-03-08T12:03:54;16.60;;;13.95;;
2129;SDS011;1071;52.544;13.374;2024-03-08T12:06:24;17.38;;;14.48;;
2129;SDS011;1071;52.544;13.374;2024-03-08T12:08:52;21.70;;;16.10;;
2129;SDS011;1071;52.544;13.374;2024-03-08T12:11:22;17.75;;;15.65;;
2129;SDS011;1071;52.544;13.374;2024-03-08T12:13:51;20.75;;;15.75;;
2129;SDS011;1071;52.544;13.374;2024-03-08T12:16:23;18.55;;;13.90;;
2129;SDS011;1071;52.544;13.374;2024-03-08T12:18:51;18.83;;;15.48;;
2129;SDS011;1071;52.544;13.374;2024-03-08T12:21:19;17.23;;;15.40;;
2129;SDS011;1071;52.544;13.374;2024-03-08T12:24:04;17.45;;;14.50;;
2129;SDS011;1071;52.544;13.374;2024-03-08T12:26:34;16.05;;;14.32;;
2129;SDS011;1071;52.544;13.374;2024-03-08T12:29:15;18.65;;;15.23;;
2129;SDS011;1071;52.544;13.374;2024-03-08T12:31:48;18.90;;;16.27;;
2129;SDS011;1071;52.544;13.374;2024-03-08T12:34:18;19.45;;;15.02;;
2129;SDS011;1071;52.544;13.374;2024-03-08T12:36:46;19.00;;;14.93;;
2129;SDS011;1071;52.544;13.374;2024-03-08T12:39:15;18.63;;;15.90;;
2129;SDS011;1071;52.544;13.374;2024-03-08T12:41:47;17.05;;;13.45;;
2129;SDS011;1071;52.544;13.374;2024-03-08T12:44:14;17.20;;;15.15;;
2129;SDS011;1071;52.544;13.374;2024-03-08T12:46:43;20.15;;;15.45;;
2129;SDS011;1071;52.544;13.374;2024-03-08T12:49:14;17.83;;;14.70;;
2129;SDS011;1071;52.544;13.374;2024-03-08T12:51:48;16.85;;;14.02;;
2129;SDS011;1071;52.544;13.374;2024-03-08T12:54:21;20.88;;;17.02;;
2129;SDS011;1071;52.544;13.374;2024-03-08T12:56:49;17.48;;;15.27;;
2129;SDS011;1071;52.544;13.374;2024-03-08T12:59:19;22.13;;;16.38;;
2129;SDS011;1071;52.544;13.374;2024-03-08T13:01:48;22.08;;;15.35;;
2129;SDS011;1071;52.544;13.374;2024-03-08T13:04:17;19.27;;;17.15;;
2129;SDS011;1071;52.544;13.374;2024-03-08T13:06:46;21.02;;;16.15;;
2129;SDS011;1071;52.544;13.374;2024-03-08T13:09:20;18.35;;;15.77;;
2129;SDS011;1071;52.544;13.374;2024-03-08T13:11:58;19.52;;;16.50;;
2129;SDS011;1071;52.544;13.374;2024-03-08T13:14:28;17.55;;;15.65;;
2129;SDS011;1071;52.544;13.374;2024-03-08T13:17:00;18.48;;;14.70;;
2129;SDS011;1071;52.544;13.374;2024-03-08T13:19:30;16.48;;;14.70;;
2129;SDS011;1071;52.544;13.374;2024-03-08T13:21:59;18.55;;;16.73;;
2129;SDS011;1071;52.544;13.374;2024-03-08T13:24:26;20.55;;;16.17;;
2129;SDS011;1071;52.544;13.374;2024-03-08T13:27:01;17.30;;;13.98;;
2129;SDS011;1071;52.544;13.374;2024-03-08T13:29:41;18.48;;;14.93;;
2129;SDS011;1071;52.544;13.374;2024-03-08T13:32:12;19.67;;;14.20;;
2129;SDS011;1071;52.544;13.374;2024-03-08T13:34:43;18.10;;;14.57;;
2129;SDS011;1071;52.544;13.374;2024-03-08T13:37:16;19.08;;;14.30;;
2129;SDS011;1071;52.544;13.374;2024-03-08T13:39:43;17.65;;;14.02;;
2129;SDS011;1071;52.544;13.374;2024-03-08T13:42:10;18.55;;;14.75;;
2129;SDS011;1071;52.544;13.374;2024-03-08T13:44:38;18.52;;;14.20;;
2129;SDS011;1071;52.544;13.374;2024-03-08T13:47:10;19.75;;;14.63;;
2129;SDS011;1071;52.544;13.374;2024-03-08T13:49:41;17.35;;;14.32;;
2129;SDS011;1071;52.544;13.374;2024-03-08T13:52:10;19.38;;;14.63;;
2129;SDS011;1071;52.544;13.374;2024-03-08T13:54:44;18.05;;;14.20;;
2129;SDS011;1071;52.544;13.374;2024-03-08T13:57:12;17.58;;;14.85;;
2129;SDS011;1071;52.544;13.374;2024-03-08T13:59:42;16.42;;;13.88;;
2129;SDS011;1071;52.544;13.374;2024-03-08T14:02:11;18.85;;;14.18;;
2129;SDS011;1071;52.544;13.374;2024-03-08T14:04:38;17.85;;;15.98;;
2129;SDS011;1071;52.544;13.374;2024-03-08T14:07:17;21.27;;;15.45;;
2129;SDS011;1071;52.544;13.374;2024-03-08T14:09:48;19.58;;;16.30;;
2129;SDS011;1071;52.544;13.374;2024-03-08T14:12:17;22.65;;;16.70;;
2129;SDS011;1071;52.544;13.374;2024-03-08T14:14:51;20.38;;;17.98;;
2129;SDS011;1071;52.544;13.374;2024-03-08T14:17:24;18.77;;;16.80;;
2129;SDS011;1071;52.544;13.374;2024-03-08T14:19:56;22.58;;;16.35;;
2129;SDS011;1071;52.544;13.374;2024-03-08T14:25:22;19.73;;;15.68;;
2129;SDS011;1071;52.544;13.374;2024-03-08T14:27:50;22.20;;;17.42;;
2129;SDS011;1071;52.544;13.374;2024-03-08T14:30:18;20.85;;;16.52;;
2129;SDS011;1071;52.544;13.374;2024-03-08T14:32:59;18.90;;;15.95;;
2129;SDS011;1071;52.544;13.374;2024-03-08T14:35:36;22.17;;;16.70;;
2129;SDS011;1071;52.544;13.374;2024-03-08T14:38:11;19.33;;;16.00;;
2129;SDS011;1071;52.544;13.374;2024-03-08T14:40:42;20.77;;;15.68;;
2129;SDS011;1071;52.544;13.374;2024-03-08T14:43:13;20.48;;;15.55;;
2129;SDS011;1071;52.544;13.374;2024-03-08T14:45:41;21.38;;;17.20;;
2129;SDS011;1071;52.544;13.374;2024-03-08T14:48:12;18.63;;;15.30;;
2129;SDS011;1071;52.544;13.374;2024-03-08T14:50:41;19.42;;;15.23;;
2129;SDS011;1071;52.544;13.374;2024-03-08T14:53:10;20.25;;;15.38;;
2129;SDS011;1071;52.544;13.374;2024-03-08T14:55:54;20.33;;;15.50;;
2129;SDS011;1071;52.544;13.374;2024-03-08T14:58:21;17.88;;;13.75;;